createdAt,value
2023-04-25T00:00:02.522Z,4.81
2023-04-25T00:02:29.455Z,4.80
2023-04-25T00:05:00.629Z,4.70
2023-04-25T00:07:29.608Z,4.70
2023-04-25T00:09:56.133Z,4.75
2023-04-25T00:12:23.857Z,4.84
2023-04-25T00:14:53.873Z,4.85
2023-04-25T00:17:20.486Z,4.89
2023-04-25T00:19:47.324Z,4.93
2023-04-25T00:22:14.737Z,4.96
2023-04-25T00:24:41.371Z,4.97
2023-04-25T00:27:08.031Z,5.02
2023-04-25T00:29:35.050Z,5.03
2023-04-25T00:32:02.048Z,5.02
2023-04-25T00:34:31.213Z,5.02
2023-04-25T00:36:59.213Z,5.09
2023-04-25T00:39:25.758Z,5.12
2023-04-25T00:41:54.225Z,5.13
2023-04-25T00:44:21.502Z,5.17
2023-04-25T00:46:51.409Z,5.19
2023-04-25T00:49:18.113Z,5.18
2023-04-25T00:51:47.578Z,5.18
2023-04-25T00:54:17.296Z,5.11
2023-04-25T00:56:44.187Z,5.15
2023-04-25T00:59:11.106Z,5.12
2023-04-25T01:01:39.416Z,5.07
2023-04-25T01:04:06.243Z,5.02
2023-04-25T01:06:33.871Z,5.01
2023-04-25T01:09:01.033Z,4.98
2023-04-25T01:11:27.664Z,4.97
2023-04-25T01:13:54.336Z,4.90
2023-04-25T01:16:25.026Z,4.85
2023-04-25T01:18:52.377Z,4.80
2023-04-25T01:21:19.326Z,4.76
2023-04-25T01:23:46.685Z,4.66
2023-04-25T01:26:13.524Z,4.62
2023-04-25T01:28:44.421Z,4.53
2023-04-25T01:31:12.274Z,4.47
2023-04-25T01:33:38.951Z,4.46
2023-04-25T01:36:06.180Z,4.38
2023-04-25T01:38:33.064Z,4.37
2023-04-25T01:40:59.956Z,4.30
2023-04-25T01:43:27.629Z,4.27
2023-04-25T01:45:54.627Z,4.26
2023-04-25T01:48:21.364Z,4.25
2023-04-25T01:50:49.194Z,4.26
2023-04-25T01:53:19.307Z,4.23
2023-04-25T01:55:45.934Z,4.21
2023-04-25T01:58:13.951Z,4.19
2023-04-25T02:00:42.786Z,4.12
2023-04-25T02:03:09.865Z,4.12
2023-04-25T02:05:38.089Z,4.12
2023-04-25T02:08:09.453Z,4.08
2023-04-25T02:10:37.141Z,4.06
2023-04-25T02:13:05.495Z,4.06
2023-04-25T02:15:34.659Z,4.04
2023-04-25T02:18:01.561Z,4.03
2023-04-25T02:20:29.770Z,4.02
2023-04-25T02:22:56.410Z,3.98
2023-04-25T02:25:24.258Z,3.99
2023-04-25T02:27:54.995Z,3.97
2023-04-25T02:30:21.863Z,3.93
2023-04-25T02:32:48.472Z,3.93
2023-04-25T02:35:15.192Z,3.87
2023-04-25T02:37:41.807Z,3.83
2023-04-25T02:40:09.094Z,3.82
2023-04-25T02:42:35.795Z,3.77
2023-04-25T02:45:02.773Z,3.80
2023-04-25T02:47:29.776Z,3.83
2023-04-25T02:49:56.547Z,3.86
2023-04-25T02:52:23.145Z,3.93
2023-04-25T02:54:49.741Z,3.93
2023-04-25T02:57:16.378Z,3.93
2023-04-25T02:59:43.011Z,3.96
2023-04-25T03:02:11.185Z,3.96
2023-04-25T03:04:38.004Z,3.97
2023-04-25T03:07:05.367Z,3.96
2023-04-25T03:09:31.941Z,3.94
2023-04-25T03:11:58.457Z,3.93
2023-04-25T03:14:24.958Z,3.91
2023-04-25T03:16:51.579Z,3.89
2023-04-25T03:19:18.295Z,3.85
2023-04-25T03:21:45.551Z,3.79
2023-04-25T03:24:12.927Z,3.72
2023-04-25T03:26:39.573Z,3.74
2023-04-25T03:29:06.306Z,3.71
2023-04-25T03:31:32.837Z,3.73
2023-04-25T03:33:59.339Z,3.74
2023-04-25T03:36:25.902Z,3.76
2023-04-25T03:38:52.550Z,3.80
2023-04-25T03:41:19.097Z,3.83
2023-04-25T03:43:46.000Z,3.84
2023-04-25T03:46:12.564Z,3.86
2023-04-25T03:48:39.102Z,3.88
2023-04-25T03:51:05.829Z,3.95
2023-04-25T03:53:32.357Z,4.00
2023-04-25T03:55:58.898Z,4.08
2023-04-25T03:58:25.581Z,4.12
2023-04-25T04:00:52.221Z,4.16
2023-04-25T04:03:18.925Z,4.23
2023-04-25T04:05:46.225Z,4.24
2023-04-25T04:08:13.072Z,4.27
2023-04-25T04:10:39.675Z,4.30
2023-04-25T04:13:06.184Z,4.30
2023-04-25T04:15:34.149Z,4.28
2023-04-25T04:18:03.801Z,4.26
2023-04-25T04:20:33.807Z,4.29
2023-04-25T04:23:00.387Z,4.34
2023-04-25T04:25:27.312Z,4.37
2023-04-25T04:27:55.830Z,4.37
2023-04-25T04:30:26.466Z,4.40
2023-04-25T04:32:53.490Z,4.37
2023-04-25T04:35:20.110Z,4.37
2023-04-25T04:37:47.497Z,4.38
2023-04-25T04:40:16.459Z,4.40
2023-04-25T04:42:44.269Z,4.38
2023-04-25T04:45:11.271Z,4.38
2023-04-25T04:47:41.687Z,4.43
2023-04-25T04:50:10.552Z,4.43
2023-04-25T04:52:38.370Z,4.46
2023-04-25T04:55:06.561Z,4.51
2023-04-25T04:57:33.966Z,4.51
2023-04-25T05:00:00.619Z,4.54
2023-04-25T05:02:27.616Z,4.58
2023-04-25T05:04:54.270Z,4.57
2023-04-25T05:07:20.824Z,4.58
2023-04-25T05:09:47.358Z,4.59
2023-04-25T05:12:13.994Z,4.59
2023-04-25T05:14:40.616Z,4.58
2023-04-25T05:17:09.411Z,4.59
2023-04-25T05:19:36.055Z,4.58
2023-04-25T05:22:03.540Z,4.61
2023-04-25T05:24:31.532Z,4.61
2023-04-25T05:26:58.531Z,4.63
2023-04-25T05:29:25.372Z,4.66
2023-04-25T05:31:51.990Z,4.70
2023-04-25T05:34:18.675Z,4.74
2023-04-25T05:36:45.173Z,4.78
2023-04-25T05:39:12.172Z,4.81
2023-04-25T05:41:38.684Z,4.84
2023-04-25T05:44:05.817Z,4.88
2023-04-25T05:46:32.411Z,4.94
2023-04-25T05:48:59.047Z,4.99
2023-04-25T05:51:25.612Z,5.04
2023-04-25T05:53:52.286Z,5.09
2023-04-25T05:56:19.163Z,5.12
2023-04-25T05:58:45.979Z,5.21
2023-04-25T06:01:13.615Z,5.25
2023-04-25T06:03:40.469Z,5.28
2023-04-25T06:06:07.289Z,5.37
2023-04-25T06:08:33.861Z,5.44
2023-04-25T06:11:00.382Z,5.50
2023-04-25T06:13:27.072Z,5.55
2023-04-25T06:15:53.699Z,5.63
2023-04-25T06:18:20.417Z,5.66
2023-04-25T06:20:47.254Z,5.75
2023-04-25T06:23:13.885Z,5.77
2023-04-25T06:25:40.455Z,5.83
2023-04-25T06:28:06.986Z,5.85
2023-04-25T06:30:33.562Z,5.87
2023-04-25T06:33:00.210Z,5.95
2023-04-25T06:35:26.732Z,6.20
2023-04-25T06:37:53.484Z,6.87
2023-04-25T06:40:20.027Z,6.76
2023-04-25T06:42:46.615Z,6.63
2023-04-25T06:45:13.260Z,6.58
2023-04-25T06:47:39.892Z,6.57
2023-04-25T06:50:07.086Z,6.54
2023-04-25T06:52:36.279Z,6.48
2023-04-25T06:55:03.793Z,6.42
2023-04-25T06:57:30.442Z,6.46
2023-04-25T06:59:57.305Z,6.47
2023-04-25T07:02:24.082Z,6.54
2023-04-25T07:04:51.113Z,6.60
2023-04-25T07:07:18.216Z,6.58
2023-04-25T07:09:44.704Z,6.61
2023-04-25T07:12:11.195Z,6.58
2023-04-25T07:14:37.667Z,6.56
2023-04-25T07:17:04.309Z,6.57
2023-04-25T07:19:30.919Z,6.54
2023-04-25T07:21:57.425Z,6.56
2023-04-25T07:24:23.974Z,6.87
2023-04-25T07:26:50.983Z,7.19
2023-04-25T07:29:17.495Z,7.41
2023-04-25T07:31:44.012Z,7.43
2023-04-25T07:34:11.229Z,7.48
2023-04-25T07:36:37.763Z,7.50
2023-04-25T07:39:04.376Z,7.50
2023-04-25T07:41:30.899Z,7.48
2023-04-25T07:43:57.409Z,7.38
2023-04-25T07:46:24.961Z,7.45
2023-04-25T07:48:51.793Z,7.47
2023-04-25T07:51:20.805Z,7.42
2023-04-25T07:53:49.506Z,7.50
2023-04-25T07:56:16.993Z,7.59
2023-04-25T07:58:43.518Z,7.65
2023-04-25T08:01:10.028Z,7.67
2023-04-25T08:03:36.810Z,7.63
2023-04-25T08:06:06.923Z,7.75
2023-04-25T08:08:34.856Z,7.91
2023-04-25T08:11:01.438Z,7.97
2023-04-25T08:13:27.972Z,8.01
2023-04-25T08:15:54.624Z,8.15
2023-04-25T08:18:21.407Z,8.18
2023-04-25T08:20:48.032Z,8.22
2023-04-25T08:23:15.315Z,8.12
2023-04-25T08:25:41.950Z,7.63
2023-04-25T08:28:08.497Z,6.93
2023-04-25T08:30:35.018Z,6.48
2023-04-25T08:33:01.647Z,6.36
2023-04-25T08:35:28.158Z,6.30
2023-04-25T08:37:54.664Z,6.40
2023-04-25T08:40:27.167Z,6.53
2023-04-25T08:42:54.788Z,6.66
2023-04-25T08:45:21.673Z,6.79
2023-04-25T08:47:49.860Z,6.90
2023-04-25T08:50:17.757Z,6.93
2023-04-25T08:52:46.791Z,6.94
2023-04-25T08:55:14.146Z,7.03
2023-04-25T08:57:46.095Z,7.36
2023-04-25T09:00:13.797Z,7.74
2023-04-25T09:02:41.744Z,7.94
2023-04-25T09:05:11.034Z,7.84
2023-04-25T09:07:37.831Z,7.83
2023-04-25T09:10:04.682Z,7.91
2023-04-25T09:12:31.722Z,7.99
2023-04-25T09:15:09.926Z,8.35
2023-04-25T09:17:41.121Z,8.62
2023-04-25T09:20:13.144Z,8.84
2023-04-25T09:22:40.117Z,8.91
2023-04-25T09:25:11.859Z,8.72
2023-04-25T09:27:51.474Z,8.46
2023-04-25T09:30:20.537Z,8.33
2023-04-25T09:32:48.109Z,8.47
2023-04-25T09:35:26.396Z,8.64
2023-04-25T09:37:52.901Z,8.63
2023-04-25T09:40:19.734Z,8.59
2023-04-25T09:42:46.358Z,8.46
2023-04-25T09:45:14.509Z,8.31
2023-04-25T09:47:41.128Z,7.96
2023-04-25T09:50:16.317Z,7.55
2023-04-25T09:52:42.933Z,7.41
2023-04-25T09:55:09.461Z,7.37
2023-04-25T09:57:36.973Z,7.32
2023-04-25T10:00:05.903Z,7.36
2023-04-25T10:02:34.092Z,7.50
2023-04-25T10:05:04.510Z,7.52
2023-04-25T10:07:32.269Z,7.67
2023-04-25T10:10:04.675Z,7.97
2023-04-25T10:12:33.707Z,8.11
2023-04-25T10:15:01.506Z,8.05
2023-04-25T10:17:31.425Z,8.03
2023-04-25T10:19:58.929Z,8.18
2023-04-25T10:22:38.333Z,8.34
2023-04-25T10:25:07.166Z,8.30
2023-04-25T10:27:34.758Z,8.48
2023-04-25T10:30:09.932Z,8.73
2023-04-25T10:32:36.667Z,8.72
2023-04-25T10:35:13.740Z,8.62
2023-04-25T10:38:17.633Z,8.64
2023-04-25T10:41:03.734Z,8.65
2023-04-25T10:43:38.756Z,8.64
2023-04-25T10:46:28.098Z,8.76
2023-04-25T10:48:57.182Z,8.79
2023-04-25T10:51:29.543Z,8.74
2023-04-25T10:54:07.415Z,8.73
2023-04-25T10:56:45.253Z,8.82
2023-04-25T10:59:19.946Z,8.90
2023-04-25T11:01:48.928Z,8.92
2023-04-25T11:04:24.694Z,8.87
2023-04-25T11:07:07.489Z,8.88
2023-04-25T11:09:41.006Z,8.76
2023-04-25T11:12:09.673Z,8.57
2023-04-25T11:14:36.889Z,8.22
2023-04-25T11:17:03.744Z,8.00
2023-04-25T11:19:31.202Z,8.05
2023-04-25T11:21:59.023Z,7.84
2023-04-25T11:24:33.135Z,7.49
2023-04-25T11:27:00.773Z,7.29
2023-04-25T11:29:31.761Z,7.14
2023-04-25T11:32:02.010Z,7.05
2023-04-25T11:34:31.829Z,7.06
2023-04-25T11:36:58.751Z,7.11
2023-04-25T11:39:26.146Z,7.17
2023-04-25T11:41:53.466Z,7.24
2023-04-25T11:44:20.974Z,7.38
2023-04-25T11:46:48.221Z,7.58
2023-04-25T11:49:19.085Z,7.82
2023-04-25T11:51:48.539Z,8.03
2023-04-25T11:54:15.980Z,8.12
2023-04-25T11:56:46.743Z,8.22
2023-04-25T11:59:14.115Z,8.36
2023-04-25T12:01:42.428Z,8.42
2023-04-25T12:04:23.225Z,8.59
2023-04-25T12:06:53.152Z,8.98
2023-04-25T12:09:31.234Z,9.04
2023-04-25T12:11:59.778Z,8.93
2023-04-25T12:14:28.642Z,8.87
2023-04-25T12:17:08.610Z,8.83
2023-04-25T12:19:36.785Z,8.79
2023-04-25T12:22:06.720Z,8.68
2023-04-25T12:24:38.371Z,8.66
2023-04-25T12:27:08.995Z,8.74
2023-04-25T12:29:48.658Z,8.74
2023-04-25T12:32:16.684Z,8.74
2023-04-25T12:34:43.252Z,8.71
2023-04-25T12:37:10.025Z,8.65
2023-04-25T12:39:36.524Z,8.80
2023-04-25T12:42:04.802Z,9.03
2023-04-25T12:44:32.179Z,8.93
2023-04-25T12:46:58.896Z,8.94
2023-04-25T12:49:26.413Z,8.99
2023-04-25T12:51:52.875Z,8.82
2023-04-25T12:54:19.384Z,8.85
2023-04-25T12:56:46.883Z,9.17
2023-04-25T12:59:13.521Z,9.38
2023-04-25T13:01:40.299Z,9.64
2023-04-25T13:04:07.086Z,9.73
2023-04-25T13:06:33.683Z,9.66
2023-04-25T13:09:00.376Z,9.48
2023-04-25T13:11:27.022Z,9.37
2023-04-25T13:13:53.904Z,9.13
2023-04-25T13:16:21.988Z,9.01
2023-04-25T13:18:48.950Z,8.89
2023-04-25T13:21:15.621Z,8.89
2023-04-25T13:23:43.856Z,9.00
2023-04-25T13:26:10.469Z,9.03
2023-04-25T13:28:37.048Z,8.97
2023-04-25T13:31:03.709Z,9.21
2023-04-25T13:33:30.775Z,9.33
2023-04-25T13:35:58.227Z,9.34
2023-04-25T13:38:26.517Z,9.19
2023-04-25T13:40:54.047Z,8.97
2023-04-25T13:43:22.855Z,8.84
2023-04-25T13:45:52.799Z,8.73
2023-04-25T13:48:20.865Z,8.63
2023-04-25T13:50:47.388Z,8.52
2023-04-25T13:53:13.925Z,8.47
2023-04-25T13:55:40.640Z,8.48
2023-04-25T13:58:08.959Z,8.72
2023-04-25T14:00:40.366Z,8.82
2023-04-25T14:03:08.802Z,8.88
2023-04-25T14:05:40.411Z,8.81
2023-04-25T14:08:08.924Z,8.73
2023-04-25T14:10:36.097Z,8.74
2023-04-25T14:13:04.163Z,8.69
2023-04-25T14:15:34.541Z,8.57
2023-04-25T14:18:02.088Z,8.52
2023-04-25T14:20:29.312Z,8.47
2023-04-25T14:22:57.113Z,8.45
2023-04-25T14:25:24.326Z,8.50
2023-04-25T14:27:51.152Z,8.50
2023-04-25T14:30:19.176Z,8.48
2023-04-25T14:32:46.779Z,8.55
2023-04-25T14:35:13.584Z,8.80
2023-04-25T14:37:40.450Z,9.14
2023-04-25T14:40:11.426Z,9.34
2023-04-25T14:42:38.278Z,9.56
2023-04-25T14:45:06.303Z,9.52
2023-04-25T14:47:33.072Z,9.25
2023-04-25T14:49:59.817Z,8.96
2023-04-25T14:52:26.794Z,8.81
2023-04-25T14:54:53.584Z,8.67
2023-04-25T14:57:20.176Z,8.68
2023-04-25T14:59:46.806Z,8.74
2023-04-25T15:02:13.395Z,8.81
2023-04-25T15:04:40.180Z,8.85
2023-04-25T15:07:06.715Z,8.84
2023-04-25T15:09:33.209Z,8.92
2023-04-25T15:11:59.804Z,9.01
2023-04-25T15:14:26.443Z,9.08
2023-04-25T15:16:53.069Z,9.02
2023-04-25T15:19:19.620Z,9.10
2023-04-25T15:21:46.256Z,9.14
2023-04-25T15:24:13.034Z,9.13
2023-04-25T15:26:40.448Z,9.17
2023-04-25T15:29:07.661Z,8.98
2023-04-25T15:31:34.164Z,8.88
2023-04-25T15:34:01.204Z,8.85
2023-04-25T15:36:27.763Z,8.83
2023-04-25T15:38:54.268Z,8.80
2023-04-25T15:41:21.181Z,8.77
2023-04-25T15:43:49.015Z,8.68
2023-04-25T15:46:16.121Z,8.53
2023-04-25T15:48:42.692Z,8.35
2023-04-25T15:51:10.542Z,8.34
2023-04-25T15:53:37.422Z,8.37
2023-04-25T15:56:04.621Z,8.51
2023-04-25T15:58:31.239Z,8.67
2023-04-25T16:00:57.913Z,8.79
2023-04-25T16:03:24.538Z,8.86
2023-04-25T16:05:51.231Z,8.74
2023-04-25T16:08:17.773Z,8.62
2023-04-25T16:10:44.506Z,8.53
2023-04-25T16:13:11.664Z,8.45
2023-04-25T16:15:38.716Z,8.42
2023-04-25T16:18:05.497Z,8.40
2023-04-25T16:20:32.824Z,8.41
2023-04-25T16:22:59.418Z,8.44
2023-04-25T16:25:25.906Z,8.35
2023-04-25T16:27:52.532Z,8.29
2023-04-25T16:30:19.148Z,8.32
2023-04-25T16:32:45.950Z,8.25
2023-04-25T16:35:12.616Z,8.20
2023-04-25T16:37:39.164Z,8.20
2023-04-25T16:40:09.835Z,8.17
2023-04-25T16:42:36.914Z,8.12
2023-04-25T16:45:05.083Z,8.07
2023-04-25T16:47:32.341Z,8.06
2023-04-25T16:50:00.980Z,8.12
2023-04-25T16:52:27.445Z,8.20
2023-04-25T16:54:53.932Z,8.21
2023-04-25T16:57:21.167Z,8.21
2023-04-25T16:59:47.964Z,8.19
2023-04-25T17:02:15.089Z,8.20
2023-04-25T17:04:41.846Z,8.19
2023-04-25T17:07:08.986Z,8.18
2023-04-25T17:09:36.253Z,8.11
2023-04-25T17:12:03.972Z,8.05
2023-04-25T17:14:32.339Z,7.89
2023-04-25T17:16:59.069Z,7.79
2023-04-25T17:19:26.095Z,7.70
2023-04-25T17:21:52.673Z,7.62
2023-04-25T17:24:21.250Z,7.54
2023-04-25T17:26:48.879Z,7.53
2023-04-25T17:29:15.908Z,7.52
2023-04-25T17:31:42.735Z,7.54
2023-04-25T17:34:09.949Z,7.56
2023-04-25T17:36:36.524Z,7.58
2023-04-25T17:39:06.305Z,7.59
2023-04-25T17:41:33.008Z,7.61
2023-04-25T17:43:59.596Z,7.63
2023-04-25T17:46:27.448Z,7.57
2023-04-25T17:48:54.631Z,7.48
2023-04-25T17:51:21.580Z,7.37
2023-04-25T17:53:48.268Z,7.34
2023-04-25T17:56:25.905Z,7.28
2023-04-25T17:58:53.762Z,7.20
2023-04-25T18:01:20.671Z,7.13
2023-04-25T18:03:49.269Z,7.10
2023-04-25T18:06:16.955Z,7.02
2023-04-25T18:08:44.716Z,6.97
2023-04-25T18:11:12.190Z,6.90
2023-04-25T18:13:40.764Z,6.85
2023-04-25T18:16:07.761Z,6.85
2023-04-25T18:18:36.201Z,6.82
2023-04-25T18:21:05.170Z,6.84
2023-04-25T18:23:34.001Z,6.84
2023-04-25T18:26:01.323Z,6.85
2023-04-25T18:28:28.102Z,6.85
2023-04-25T18:30:54.600Z,6.85
2023-04-25T18:33:24.482Z,6.81
2023-04-25T18:35:58.163Z,6.80
2023-04-25T18:38:35.545Z,6.79
2023-04-25T18:41:41.449Z,6.78
2023-04-25T18:44:02.558Z,6.77
2023-04-25T18:46:31.553Z,6.71
2023-04-25T18:48:58.737Z,6.70
2023-04-25T18:51:32.007Z,6.65
2023-04-25T18:53:59.204Z,6.57
2023-04-25T18:56:27.487Z,6.50
2023-04-25T18:58:55.489Z,6.46
2023-04-25T19:01:23.267Z,6.37
2023-04-25T19:03:55.788Z,6.36
2023-04-25T19:06:24.656Z,6.28
2023-04-25T19:08:52.783Z,6.28
2023-04-25T19:11:21.437Z,6.24
2023-04-25T19:13:48.812Z,6.16
2023-04-25T19:16:17.377Z,6.11
2023-04-25T19:18:44.822Z,6.10
2023-04-25T19:21:11.413Z,6.03
2023-04-25T19:23:40.652Z,5.98
2023-04-25T19:26:07.549Z,5.90
2023-04-25T19:28:35.529Z,5.87
2023-04-25T19:31:02.512Z,5.82
2023-04-25T19:33:29.296Z,5.76
2023-04-25T19:35:55.946Z,5.66
2023-04-25T19:38:22.534Z,5.63
2023-04-25T19:40:49.508Z,5.58
2023-04-25T19:43:16.080Z,5.53
2023-04-25T19:45:42.739Z,5.48
2023-04-25T19:48:10.385Z,5.39
2023-04-25T19:50:37.240Z,5.36
2023-04-25T19:53:04.381Z,5.33
2023-04-25T19:55:31.206Z,5.29
2023-04-25T19:57:57.992Z,5.26
2023-04-25T20:00:25.118Z,5.22
2023-04-25T20:02:51.839Z,5.16
2023-04-25T20:05:18.638Z,5.14
2023-04-25T20:07:45.583Z,5.08
2023-04-25T20:10:15.832Z,5.01
2023-04-25T20:12:51.844Z,4.91
2023-04-25T20:15:29.201Z,4.85
2023-04-25T20:17:55.868Z,4.85
2023-04-25T20:20:22.477Z,4.84
2023-04-25T20:22:50.873Z,4.85
2023-04-25T20:25:19.179Z,4.82
2023-04-25T20:27:45.656Z,4.81
2023-04-25T20:30:13.715Z,4.76
2023-04-25T20:32:40.554Z,4.74
2023-04-25T20:35:09.200Z,4.69
2023-04-25T20:37:36.209Z,4.60
2023-04-25T20:40:05.438Z,4.53
2023-04-25T20:42:34.537Z,4.50
2023-04-25T20:45:01.285Z,4.44
2023-04-25T20:47:28.575Z,4.35
2023-04-25T20:49:55.371Z,4.26
2023-04-25T20:52:22.750Z,4.19
2023-04-25T20:54:50.533Z,4.16
2023-04-25T20:57:17.496Z,4.14
2023-04-25T20:59:43.961Z,4.07
2023-04-25T21:02:12.584Z,4.06
2023-04-25T21:04:39.436Z,4.08
2023-04-25T21:07:06.287Z,3.99
2023-04-25T21:09:32.792Z,3.90
2023-04-25T21:11:59.285Z,3.89
2023-04-25T21:14:25.779Z,3.83
2023-04-25T21:16:52.381Z,3.77
2023-04-25T21:19:18.887Z,3.68
2023-04-25T21:21:46.083Z,3.66
2023-04-25T21:24:14.343Z,3.60
2023-04-25T21:26:41.204Z,3.62
2023-04-25T21:29:08.299Z,3.60
2023-04-25T21:31:35.793Z,3.61
2023-04-25T21:34:02.756Z,3.54
2023-04-25T21:36:29.359Z,3.46
2023-04-25T21:38:55.923Z,3.48
2023-04-25T21:41:22.560Z,3.47
2023-04-25T21:43:49.176Z,3.41
2023-04-25T21:46:23.378Z,3.43
2023-04-25T21:48:51.566Z,3.48
2023-04-25T21:51:18.760Z,3.47
2023-04-25T21:53:45.273Z,3.46
2023-04-25T21:56:12.398Z,3.42
2023-04-25T21:58:38.911Z,3.34
2023-04-25T22:01:05.453Z,3.29
2023-04-25T22:03:33.097Z,3.36
2023-04-25T22:05:59.836Z,3.33
2023-04-25T22:08:26.275Z,3.29
2023-04-25T22:10:55.264Z,3.19
2023-04-25T22:13:22.799Z,3.11
2023-04-25T22:15:49.432Z,3.02
2023-04-25T22:18:16.364Z,3.00
2023-04-25T22:20:44.274Z,2.96
2023-04-25T22:23:12.161Z,2.86
2023-04-25T22:25:38.786Z,2.83
2023-04-25T22:28:05.444Z,2.85
2023-04-25T22:30:32.458Z,2.76
2023-04-25T22:32:59.077Z,2.73
2023-04-25T22:35:25.769Z,2.75
2023-04-25T22:37:52.396Z,2.79
2023-04-25T22:40:19.039Z,2.80
2023-04-25T22:42:45.598Z,2.80
2023-04-25T22:45:12.604Z,2.82
2023-04-25T22:47:39.892Z,2.81
2023-04-25T22:50:12.756Z,2.76
2023-04-25T22:52:40.396Z,2.74
2023-04-25T22:55:07.128Z,2.66
2023-04-25T22:57:33.637Z,2.64
2023-04-25T23:00:00.229Z,2.66
2023-04-25T23:02:27.392Z,2.66
2023-04-25T23:04:54.956Z,2.70
2023-04-25T23:07:21.761Z,2.73
2023-04-25T23:09:48.294Z,2.59
2023-04-25T23:12:18.044Z,2.38
2023-04-25T23:14:48.709Z,2.31
2023-04-25T23:17:15.172Z,2.32
2023-04-25T23:19:41.649Z,2.42
2023-04-25T23:22:08.531Z,2.40
2023-04-25T23:24:41.378Z,2.40
2023-04-25T23:27:08.092Z,2.48
2023-04-25T23:29:34.749Z,2.53
2023-04-25T23:32:04.478Z,2.50
2023-04-25T23:34:31.967Z,2.51
2023-04-25T23:37:01.244Z,2.57
2023-04-25T23:39:28.340Z,2.62
2023-04-25T23:41:55.092Z,2.75
2023-04-25T23:44:22.265Z,2.82
2023-04-25T23:46:49.274Z,2.91
2023-04-25T23:49:16.046Z,3.00
2023-04-25T23:51:43.055Z,3.06
2023-04-25T23:54:09.644Z,2.85
2023-04-25T23:56:36.113Z,2.71
2023-04-25T23:59:02.797Z,2.60
